Vaduz, Liechtenstein

4:27 PM CEST on September 03, 2015 (GMT +0200)
IOBERLAN3 | | Change Station
CLOSE
Current Station
Personal Weather Station
Location: Vaduz, Oberland
Elevation: 1690 ft
Nearby Weather Stations

Elev 1690 ft 47.15 °N, 9.52 °E | Updated 2 minutes ago

Light Rain
Light Rain
59.4 °F
Feels Like 59.4 °F
N
1.0
Wind Variable Wind from WSW
Gusts 3.0 mph

Today
High -- | Low -- °F
--% Chance of Precip.
Yesterday
High -- | Low -- °F
Precip. -- in
6:43 AM 7:58 PM
Waning Gibbous, 70% visible
Pressure 29.98 in
Visibility 5.0 miles
Clouds Scattered Clouds 2000 ft
Mostly Cloudy 5000 ft
Dew Point 55 °F
Humidity 87%
Rainfall 0.29 in
Snow Depth Not available.
UV 0.0 out of 12
Pollen Not available.
Air Quality Not available.
Flu Activity Not available.
METAR LSZR 031420Z 12006KT 8000 -RA SCT020 BKN050 16/14 Q1015 RERA NOSIG RMK K
Pressure 29.98 in
Visibility 5.0 miles
Clouds Scattered Clouds 2000 ft
Mostly Cloudy 5000 ft
Dew Point 55 °F
Humidity 87%
Rainfall 0.29 in
Snow Depth Not available.
UV 0.0 out of 12
Pollen Not available.
Air Quality Not available.
Flu Activity Not available.
METAR LSZR 031420Z 12006KT 8000 -RA SCT020 BKN050 16/14 Q1015 RERA NOSIG RMK K

10-Day Weather Forecast

×

Almanac

Astronomy

Sep. 03, 2015 Rise Set
Actual Time
Civil Twilight
Nautical Twilight
Astronomical Twilight
Moon
Length of Visible Light
Length of Day
Tomorrow will be .
, % of the Moon is Illuminated

Today's Extremes

Country Highs Country Lows

Community

WunderPhotos

Upload Photos

1,851,959 photos uploaded!

WunderBlogs® & News

Nearby

Air Quality

  Air Quality AQ Index Pollutant
Not available.

Snow Depth

Station Depth Elevation

Earthquake Activity

City Distance Mag. Time & Date
Minimum magnitude displayed is 2.5.

Coastal Water Temperatures

Place Temperature

Stations

Nearby Weather Stations

Station Location Temp. Windchill Dew Point Humidity Wind Precip. Elev Updated Type